Time;durP1;ratioP1;P1;durP2;ratioP2;P2;SDS_P1;SDS_P2;PMS_P1;PMS_P2;Temp;Humidity;BMP_temperature;BMP_pressure;BME280_temperature;BME280_humidity;BME280_pressure;Samples;Min_cycle;Max_cycle;Signal;HPM_P1;HPM_P2
2021/08/16 00:01:11;;;;;;;;;;;;;;;36.62;18.85;94573.66;5057329;28;19913;-52
2021/08/16 00:03:38;;;;;;;;;;;;;;;36.63;18.52;94575.16;5040869;28;19921;-49
2021/08/16 00:06:05;;;;;;;;;;;;;;;36.70;18.86;94575.66;5037118;28;19920;-47
2021/08/16 00:08:32;;;;;;;;;;;;;;;36.43;19.05;94578.28;5037311;28;19924;-49
2021/08/16 00:11:02;;;;;;;;;;;;;;;36.24;18.97;94573.94;5037408;28;19925;-47
2021/08/16 00:13:32;;;;;;;;;;;;;;;36.30;18.75;94575.66;5051415;28;19920;-49
2021/08/16 00:15:59;;;;;;;;;;;;;;;36.61;18.63;94567.44;5057306;28;19924;-48
2021/08/16 00:18:26;;;;;;;;;;;;;;;36.58;18.33;94568.34;5056240;28;19913;-50
2021/08/16 00:20:53;;;;;;;;;;;;;;;36.44;18.60;94569.69;5056157;28;19913;-48
2021/08/16 00:23:20;;;;;;;;;;;;;;;36.38;18.96;94567.97;5043518;28;19988;-48
2021/08/16 00:25:47;;;;;;;;;;;;;;;36.11;19.21;94563.16;5036241;28;19920;-49
2021/08/16 00:28:14;;;;;;;;;;;;;;;36.24;18.83;94576.66;5035561;28;19920;-48
2021/08/16 00:30:40;;;;;;;;;;;;;;;36.56;18.31;94570.00;5036938;28;19944;-51
2021/08/16 00:33:07;;;;;;;;;;;;;;;36.19;18.57;94574.53;5048043;28;19919;-48
2021/08/16 00:35:34;;;;;;;;;;;;;;;35.99;18.88;94567.47;5051462;28;20240;-48
2021/08/16 00:38:02;;;;;;;;;;;;;;;36.08;18.75;94570.25;5037049;28;19949;-48
2021/08/16 00:40:29;;;;;;;;;;;;;;;36.08;18.87;94564.78;5036801;28;19921;-48
2021/08/16 00:42:55;;;;;;;;;;;;;;;36.28;18.71;94564.44;5044975;28;19924;-49
2021/08/16 00:45:23;;;;;;;;;;;;;;;36.01;19.03;94575.19;5057168;28;19912;-49
2021/08/16 00:47:50;;;;;;;;;;;;;;;36.09;19.10;94566.31;5056206;28;19913;-49
2021/08/16 00:50:17;;;;;;;;;;;;;;;35.87;19.18;94565.59;5056702;28;19943;-48
2021/08/16 00:52:44;;;;;;;;;;;;;;;35.89;19.08;94562.41;5049289;28;19928;-49
2021/08/16 00:55:11;;;;;;;;;;;;;;;35.96;19.07;94557.50;5036617;28;19913;-52
2021/08/16 00:57:38;;;;;;;;;;;;;;;36.06;18.71;94556.31;5036971;28;19913;-48
2021/08/16 01:00:06;;;;;;;;;;;;;;;35.75;19.43;94563.69;5036479;28;19913;-49
2021/08/16 01:02:33;;;;;;;;;;;;;;;35.80;19.31;94565.81;5041552;28;19917;-54
2021/08/16 01:05:04;;;;;;;;;;;;;;;35.66;19.34;94566.34;5051567;28;19917;-49
2021/08/16 01:07:31;;;;;;;;;;;;;;;35.87;19.23;94559.38;5036550;28;19983;-48
2021/08/16 01:09:59;;;;;;;;;;;;;;;35.65;19.59;94559.38;5036470;28;19920;-50
2021/08/16 01:12:33;;;;;;;;;;;;;;;35.53;19.75;94564.44;5037938;28;19921;-49
2021/08/16 01:15:01;;;;;;;;;;;;;;;35.44;20.04;94561.66;5055913;28;19939;-51
2021/08/16 01:17:28;;;;;;;;;;;;;;;35.37;19.79;94564.63;5056005;28;19913;-47
2021/08/16 01:19:55;;;;;;;;;;;;;;;35.19;19.94;94572.59;5056062;28;19916;-49
2021/08/16 01:22:22;;;;;;;;;;;;;;;35.25;20.06;94570.84;5055920;28;20322;-49
2021/08/16 01:24:49;;;;;;;;;;;;;;;35.30;19.95;94572.22;5056421;28;20382;-49
2021/08/16 01:27:16;;;;;;;;;;;;;;;35.12;20.09;94565.44;5043557;28;19917;-48
2021/08/16 01:29:42;;;;;;;;;;;;;;;35.26;20.05;94561.50;5039596;28;20342;-48
2021/08/16 01:32:09;;;;;;;;;;;;;;;35.29;19.98;94563.31;5055399;28;19923;-49
2021/08/16 01:34:36;;;;;;;;;;;;;;;35.24;20.05;94569.31;5055646;28;19927;-48
2021/08/16 01:37:03;;;;;;;;;;;;;;;35.10;20.21;94569.78;5056151;28;19913;-49
2021/08/16 01:39:30;;;;;;;;;;;;;;;35.47;19.96;94554.59;5053460;28;20223;-51
2021/08/16 01:41:57;;;;;;;;;;;;;;;35.16;20.26;94566.09;5035079;28;19943;-49
2021/08/16 01:44:24;;;;;;;;;;;;;;;35.21;20.04;94560.09;5034282;28;20240;-52
2021/08/16 01:46:53;;;;;;;;;;;;;;;35.45;19.70;94563.19;5034752;28;19921;-49
2021/08/16 01:49:20;;;;;;;;;;;;;;;35.56;19.54;94562.03;5035058;28;19917;-49
2021/08/16 01:51:47;;;;;;;;;;;;;;;35.47;19.78;94563.50;5054581;28;19916;-48
2021/08/16 01:54:15;;;;;;;;;;;;;;;35.12;20.31;94561.97;5054932;28;19912;-50
2021/08/16 01:56:41;;;;;;;;;;;;;;;35.04;20.27;94555.25;5055571;28;20350;-48
2021/08/16 01:59:08;;;;;;;;;;;;;;;35.06;20.41;94566.44;5055143;28;19912;-48
2021/08/16 02:01:35;;;;;;;;;;;;;;;35.00;20.35;94557.34;5036451;28;20204;-49
2021/08/16 02:04:02;;;;;;;;;;;;;;;34.86;20.81;94559.31;5035352;28;19917;-48
2021/08/16 02:06:29;;;;;;;;;;;;;;;34.87;20.78;94560.06;5035236;28;19921;-51
2021/08/16 02:08:56;;;;;;;;;;;;;;;34.77;20.66;94553.03;5035435;28;19924;-52
2021/08/16 02:11:23;;;;;;;;;;;;;;;35.11;20.33;94560.44;5050502;28;19917;-50
2021/08/16 02:13:50;;;;;;;;;;;;;;;35.14;20.23;94548.72;5054136;28;19921;-51
2021/08/16 02:16:17;;;;;;;;;;;;;;;34.87;20.51;94558.16;5055172;28;19924;-49
2021/08/16 02:18:44;;;;;;;;;;;;;;;35.00;20.47;94549.19;5055387;28;19920;-52
2021/08/16 02:21:10;;;;;;;;;;;;;;;34.95;20.67;94552.47;5040030;28;19913;-51
2021/08/16 02:23:37;;;;;;;;;;;;;;;34.82;20.57;94545.06;5034893;28;19928;-49
2021/08/16 02:26:04;;;;;;;;;;;;;;;35.03;20.21;94553.75;5035053;28;20235;-50
2021/08/16 02:28:32;;;;;;;;;;;;;;;34.99;20.24;94553.09;5034813;28;19913;-52
2021/08/16 02:30:59;;;;;;;;;;;;;;;35.05;20.34;94559.50;5046902;28;19920;-48
2021/08/16 02:33:26;;;;;;;;;;;;;;;34.93;20.28;94550.97;5055004;28;19920;-48
2021/08/16 02:35:52;;;;;;;;;;;;;;;35.01;20.36;94561.56;5055015;28;20231;-48
2021/08/16 02:38:19;;;;;;;;;;;;;;;34.91;20.68;94569.66;5054836;28;19924;-47
2021/08/16 02:40:46;;;;;;;;;;;;;;;34.97;20.40;94561.69;5044245;28;19920;-47
2021/08/16 02:43:13;;;;;;;;;;;;;;;34.71;20.58;94565.63;5042423;28;19924;-48
2021/08/16 02:45:40;;;;;;;;;;;;;;;34.87;20.39;94569.00;5054512;28;19935;-49
2021/08/16 02:48:06;;;;;;;;;;;;;;;34.85;20.48;94565.94;5054538;28;19913;-47
2021/08/16 02:50:33;;;;;;;;;;;;;;;34.95;20.28;94558.66;5048869;28;19921;-47
2021/08/16 02:53:00;;;;;;;;;;;;;;;35.07;20.09;94559.81;5046427;28;19920;-46
2021/08/16 02:55:27;;;;;;;;;;;;;;;35.02;20.17;94552.22;5059144;28;19919;-49
2021/08/16 02:57:54;;;;;;;;;;;;;;;35.22;20.10;94566.28;5058729;28;19919;-49
2021/08/16 03:00:21;;;;;;;;;;;;;;;35.23;19.99;94562.38;5058062;28;20342;-47
2021/08/16 03:02:47;;;;;;;;;;;;;;;35.31;19.83;94569.06;5058869;28;19920;-47
2021/08/16 03:05:14;;;;;;;;;;;;;;;35.11;20.29;94560.44;5058565;28;19920;-47
2021/08/16 03:07:41;;;;;;;;;;;;;;;35.29;19.96;94557.88;5058600;28;19972;-47
2021/08/16 03:10:09;;;;;;;;;;;;;;;35.22;20.04;94560.84;5054254;28;19923;-47
2021/08/16 03:12:36;;;;;;;;;;;;;;;35.22;19.94;94555.44;5041457;28;19924;-46
2021/08/16 03:15:04;;;;;;;;;;;;;;;34.87;20.17;94558.16;5058852;28;19913;-46
2021/08/16 03:17:31;;;;;;;;;;;;;;;34.90;20.14;94551.84;5073335;28;19912;-46
2021/08/16 03:19:58;;;;;;;;;;;;;;;34.97;20.25;94550.06;5054416;28;19916;-47
2021/08/16 03:22:25;;;;;;;;;;;;;;;35.25;19.91;94554.53;5037955;28;19917;-46
2021/08/16 03:24:52;;;;;;;;;;;;;;;35.13;19.92;94552.63;5038723;28;19924;-50
2021/08/16 03:27:19;;;;;;;;;;;;;;;35.13;20.00;94553.41;5038561;28;19917;-47
2021/08/16 03:29:46;;;;;;;;;;;;;;;35.09;20.18;94557.41;5038692;28;19920;-46
2021/08/16 03:32:13;;;;;;;;;;;;;;;34.97;20.16;94556.25;5057534;28;19920;-45
2021/08/16 03:34:40;;;;;;;;;;;;;;;34.97;20.37;94555.50;5058460;28;19920;-48
2021/08/16 03:37:07;;;;;;;;;;;;;;;35.16;20.17;94565.34;5058510;28;19917;-46
2021/08/16 03:39:33;;;;;;;;;;;;;;;35.22;19.94;94560.84;5057977;28;20231;-46
2021/08/16 03:42:00;;;;;;;;;;;;;;;35.19;20.17;94564.47;5039143;28;19917;-47
2021/08/16 03:44:27;;;;;;;;;;;;;;;35.06;20.31;94563.72;5055355;28;19928;-47
2021/08/16 03:46:54;;;;;;;;;;;;;;;35.37;19.93;94567.34;5058013;28;20617;-48
2021/08/16 03:49:21;;;;;;;;;;;;;;;35.41;19.77;94572.66;5057993;28;20334;-47
2021/08/16 03:51:47;;;;;;;;;;;;;;;35.36;19.62;94571.25;5040475;28;19920;-46
2021/08/16 03:54:14;;;;;;;;;;;;;;;34.99;20.24;94569.41;5037828;28;19917;-47
2021/08/16 03:56:41;;;;;;;;;;;;;;;34.82;20.52;94577.66;5038093;28;19917;-47
2021/08/16 03:59:08;;;;;;;;;;;;;;;35.21;19.88;94575.63;5037869;28;20244;-47
2021/08/16 04:01:35;;;;;;;;;;;;;;;35.21;19.99;94581.84;5051450;28;19916;-48
2021/08/16 04:04:02;;;;;;;;;;;;;;;35.28;19.90;94580.81;5056767;28;20239;-46
2021/08/16 04:06:29;;;;;;;;;;;;;;;35.10;19.97;94570.56;5057562;28;19912;-46
2021/08/16 04:08:56;;;;;;;;;;;;;;;34.99;19.90;94580.25;5057699;28;19919;-47
2021/08/16 04:11:23;;;;;;;;;;;;;;;35.21;20.05;94581.84;5044508;28;19940;-47
2021/08/16 04:13:49;;;;;;;;;;;;;;;35.17;20.06;94580.44;5050646;28;20402;-48
2021/08/16 04:16:17;;;;;;;;;;;;;;;35.46;19.85;94583.72;5057342;28;19920;-46
2021/08/16 04:18:43;;;;;;;;;;;;;;;35.37;19.93;94583.63;5056989;28;19920;-46
2021/08/16 04:21:10;;;;;;;;;;;;;;;35.67;19.76;94584.19;5048983;28;19921;-46
2021/08/16 04:23:37;;;;;;;;;;;;;;;35.87;19.36;94579.19;5045936;28;19921;-45
2021/08/16 04:26:04;;;;;;;;;;;;;;;34.97;20.42;94582.66;5058558;28;19912;-53
2021/08/16 04:28:31;;;;;;;;;;;;;;;34.47;21.19;94578.78;5056261;28;19920;-52
2021/08/16 04:30:59;;;;;;;;;;;;;;;34.65;20.74;94573.56;5048198;28;20346;-64
2021/08/16 04:33:25;;;;;;;;;;;;;;;34.61;20.75;94578.34;5056811;28;19921;-64
2021/08/16 04:35:53;;;;;;;;;;;;;;;34.61;20.88;94572.91;5056695;28;19917;-51
2021/08/16 04:38:20;;;;;;;;;;;;;;;34.70;20.97;94573.00;5070399;28;19919;-47
2021/08/16 04:40:47;;;;;;;;;;;;;;;34.59;21.02;94575.28;5068324;28;19913;-53
2021/08/16 04:43:16;;;;;;;;;;;;;;;34.75;20.92;94577.88;5063472;28;19924;-64
2021/08/16 04:45:43;;;;;;;;;;;;;;;34.68;21.45;94575.41;5049321;28;19917;-56
2021/08/16 04:48:12;;;;;;;;;;;;;;;35.08;20.95;94572.19;5036993;28;20209;-60
2021/08/16 04:50:39;;;;;;;;;;;;;;;35.17;20.94;94575.00;5043375;28;19919;-72
2021/08/16 04:53:06;;;;;;;;;;;;;;;35.11;20.37;94574.03;5056856;28;19921;-63
2021/08/16 04:55:33;;;;;;;;;;;;;;;35.13;20.14;94582.50;5056765;28;19912;-74
2021/08/16 04:58:00;;;;;;;;;;;;;;;37.17;19.19;94585.44;5051323;28;19917;-72
2021/08/16 05:00:27;;;;;;;;;;;;;;;36.13;19.58;94582.50;5041065;28;19932;-69
2021/08/16 05:02:54;;;;;;;;;;;;;;;35.51;20.38;94588.59;5038884;28;19913;-65
2021/08/16 05:05:24;;;;;;;;;;;;;;;35.52;20.42;94587.38;5036367;28;19916;-68
2021/08/16 05:07:51;;;;;;;;;;;;;;;35.43;20.24;94592.78;5036013;28;19917;-71
2021/08/16 05:10:19;;;;;;;;;;;;;;;35.73;20.07;94599.47;5039435;28;19916;-72
2021/08/16 05:12:46;;;;;;;;;;;;;;;35.42;20.29;94602.13;5055572;28;20327;-71
2021/08/16 05:15:13;;;;;;;;;;;;;;;35.74;20.03;94602.94;5056678;28;20247;-65
2021/08/16 05:17:39;;;;;;;;;;;;;;;35.56;19.85;94594.66;5055998;28;19916;-69
2021/08/16 05:20:07;;;;;;;;;;;;;;;35.73;19.82;94604.16;5054495;28;19923;-71
2021/08/16 05:22:34;;;;;;;;;;;;;;;35.83;19.70;94601.06;5036457;28;20338;-71
2021/08/16 05:25:01;;;;;;;;;;;;;;;35.71;19.68;94606.56;5036605;28;19923;-67
2021/08/16 05:27:28;;;;;;;;;;;;;;;36.08;19.33;94597.44;5036478;28;19917;-71
2021/08/16 05:29:55;;;;;;;;;;;;;;;36.12;18.95;94603.50;5036580;28;20292;-70
2021/08/16 05:32:22;;;;;;;;;;;;;;;36.03;19.37;94594.53;5054627;28;19916;-66
2021/08/16 05:34:49;;;;;;;;;;;;;;;36.24;18.93;94593.00;5055656;28;19916;-70
2021/08/16 05:37:19;;;;;;;;;;;;;;;36.52;19.20;94600.09;5056349;28;19913;-72
2021/08/16 05:39:46;;;;;;;;;;;;;;;36.59;18.79;94602.53;5056196;28;19912;-72
2021/08/16 05:42:16;;;;;;;;;;;;;;;37.43;18.04;94601.53;5037523;28;19924;-71
2021/08/16 05:44:43;;;;;;;;;;;;;;;37.26;18.02;94601.84;5036040;28;19928;-70
2021/08/16 05:47:10;;;;;;;;;;;;;;;38.08;17.41;94600.28;5036502;28;19913;-71
2021/08/16 05:49:37;;;;;;;;;;;;;;;38.27;17.48;94596.31;5055993;28;19919;-72
2021/08/16 05:52:04;;;;;;;;;;;;;;;38.50;17.36;94601.06;5039641;28;19913;-72
2021/08/16 05:54:31;;;;;;;;;;;;;;;38.93;16.91;94601.03;5034905;28;19924;-71
2021/08/16 05:56:57;;;;;;;;;;;;;;;38.11;17.28;94599.34;5035649;28;19924;-71
2021/08/16 05:59:24;;;;;;;;;;;;;;;38.14;17.09;94598.44;5035867;28;19913;-72
2021/08/16 06:01:51;;;;;;;;;;;;;;;38.76;16.88;94587.00;5049872;28;19913;-72
2021/08/16 06:04:18;;;;;;;;;;;;;;;38.77;16.54;94599.44;5055523;28;19925;-69
2021/08/16 06:06:45;;;;;;;;;;;;;;;38.45;16.84;94596.22;5052572;28;19913;-72
2021/08/16 06:09:12;;;;;;;;;;;;;;;38.72;16.81;94591.88;5043695;28;19919;-72
2021/08/16 06:11:39;;;;;;;;;;;;;;;39.20;16.30;94602.88;5045794;28;19920;-72
2021/08/16 06:14:06;;;;;;;;;;;;;;;39.55;16.12;94594.88;5043221;28;19935;-73
2021/08/16 06:16:32;;;;;;;;;;;;;;;40.07;15.95;94593.34;5047906;28;20320;-72
2021/08/16 06:18:59;;;;;;;;;;;;;;;40.34;15.32;94598.53;5043853;28;20330;-65
2021/08/16 06:21:26;;;;;;;;;;;;;;;40.31;15.39;94595.97;5045277;28;19913;-67
2021/08/16 06:23:53;;;;;;;;;;;;;;;40.35;15.31;94600.03;5038979;28;19920;-70
2021/08/16 06:26:20;;;;;;;;;;;;;;;40.25;15.60;94601.34;5040541;28;19923;-70
2021/08/16 06:28:46;;;;;;;;;;;;;;;40.72;15.18;94613.31;5055158;28;19920;-74
2021/08/16 06:31:13;;;;;;;;;;;;;;;40.45;15.19;94608.16;5055022;28;20292;-68
2021/08/16 06:33:41;;;;;;;;;;;;;;;40.35;15.35;94600.03;5055010;28;19925;-73
2021/08/16 06:36:08;;;;;;;;;;;;;;;40.40;15.13;94611.59;5055058;28;19920;-73
2021/08/16 06:38:35;;;;;;;;;;;;;;;39.63;15.69;94602.25;5055278;28;19919;-73
2021/08/16 06:41:02;;;;;;;;;;;;;;;40.30;15.17;94603.44;5049142;28;19913;-73
2021/08/16 06:43:30;;;;;;;;;;;;;;;40.07;15.58;94598.81;5034440;28;20240;-67
2021/08/16 06:45:57;;;;;;;;;;;;;;;40.12;15.50;94602.88;5035381;28;19913;-71
2021/08/16 06:48:24;;;;;;;;;;;;;;;39.63;15.52;94605.00;5035380;28;20267;-71
2021/08/16 06:50:51;;;;;;;;;;;;;;;39.21;15.91;94605.13;5039288;28;19917;-64
2021/08/16 06:53:17;;;;;;;;;;;;;;;39.35;15.77;94598.97;5055054;28;19916;-75
2021/08/16 06:55:45;;;;;;;;;;;;;;;39.67;15.66;94613.00;5055139;28;19917;-66
2021/08/16 06:58:12;;;;;;;;;;;;;;;39.56;15.60;94599.13;5054958;28;19912;-66
2021/08/16 07:00:40;;;;;;;;;;;;;;;39.42;15.56;94600.59;5052733;28;19920;-67
2021/08/16 07:03:07;;;;;;;;;;;;;;;39.68;15.40;94607.06;5035197;28;19913;-70
2021/08/16 07:05:34;;;;;;;;;;;;;;;40.35;14.97;94605.53;5036419;28;19917;-75
2021/08/16 07:08:01;;;;;;;;;;;;;;;40.26;15.03;94605.59;5055083;28;19924;-73
2021/08/16 07:10:27;;;;;;;;;;;;;;;40.51;14.83;94601.53;5053151;28;19913;-74
2021/08/16 07:12:54;;;;;;;;;;;;;;;40.67;14.83;94597.56;5048186;28;20247;-74
2021/08/16 07:15:21;;;;;;;;;;;;;;;39.80;15.34;94607.25;5034828;28;20213;-70
2021/08/16 07:17:48;;;;;;;;;;;;;;;40.71;14.74;94606.31;5034726;28;20318;-64
2021/08/16 07:20:15;;;;;;;;;;;;;;;40.42;14.81;94606.38;5035255;28;19917;-66
2021/08/16 07:22:42;;;;;;;;;;;;;;;41.24;14.27;94605.34;5043971;28;19913;-71
2021/08/16 07:25:09;;;;;;;;;;;;;;;41.71;13.93;94604.16;5054760;28;19920;-73
2021/08/16 07:27:35;;;;;;;;;;;;;;;41.63;13.89;94602.28;5054911;28;19916;-75
2021/08/16 07:30:02;;;;;;;;;;;;;;;42.48;13.40;94610.88;5055033;28;19912;-76
2021/08/16 07:32:29;;;;;;;;;;;;;;;42.41;13.32;94614.78;5047109;28;20296;-77
2021/08/16 07:34:56;;;;;;;;;;;;;;;42.74;12.89;94603.31;5034885;28;20292;-76
2021/08/16 07:37:23;;;;;;;;;;;;;;;42.88;12.62;94600.91;5037972;28;19913;-76
2021/08/16 07:39:50;;;;;;;;;;;;;;;42.73;13.31;94604.56;5038266;28;19913;-76
2021/08/16 07:42:20;;;;;;;;;;;;;;;42.55;12.99;94596.69;5037431;28;19920;-76
2021/08/16 07:44:47;;;;;;;;;;;;;;;42.12;13.56;94599.31;5037410;28;19913;-75
2021/08/16 07:47:14;;;;;;;;;;;;;;;41.98;13.76;94600.19;5041233;28;19919;-76
2021/08/16 07:49:41;;;;;;;;;;;;;;;41.95;13.76;94592.91;5043182;28;19928;-74
2021/08/16 07:52:08;;;;;;;;;;;;;;;41.95;13.52;94595.66;5037671;28;19920;-69
2021/08/16 07:54:35;;;;;;;;;;;;;;;42.17;13.55;94595.88;5038280;28;19924;-76
2021/08/16 07:57:02;;;;;;;;;;;;;;;42.07;13.44;94597.28;5038130;28;19922;-72
2021/08/16 07:59:28;;;;;;;;;;;;;;;41.87;13.98;94589.06;5038028;28;19920;-75
2021/08/16 08:01:55;;;;;;;;;;;;;;;41.87;13.62;94589.81;5037929;28;19916;-72
2021/08/16 08:04:22;;;;;;;;;;;;;;;42.05;13.84;94588.75;5037859;28;19917;-76
2021/08/16 08:06:49;;;;;;;;;;;;;;;42.25;13.94;94578.97;5037904;28;19913;-70
2021/08/16 08:09:16;;;;;;;;;;;;;;;42.43;14.23;94584.09;5048614;28;19916;-74
2021/08/16 08:11:43;;;;;;;;;;;;;;;42.38;13.80;94576.56;5057745;28;19913;-76
2021/08/16 08:14:10;;;;;;;;;;;;;;;42.53;13.11;94587.44;5041035;28;19921;-76
2021/08/16 08:16:36;;;;;;;;;;;;;;;42.65;12.90;94587.00;5037640;28;20292;-77
2021/08/16 08:19:03;;;;;;;;;;;;;;;42.26;13.33;94585.97;5046599;28;19920;-76
2021/08/16 08:21:30;;;;;;;;;;;;;;;42.58;13.54;94584.72;5040867;28;19917;-73
2021/08/16 08:23:57;;;;;;;;;;;;;;;42.66;13.16;94587.75;5037822;28;19924;-75
2021/08/16 08:26:28;;;;;;;;;;;;;;;43.07;12.88;94574.50;5037332;28;19913;-76
2021/08/16 08:28:54;;;;;;;;;;;;;;;43.08;13.26;94578.78;5044715;28;19913;-75
2021/08/16 08:31:21;;;;;;;;;;;;;;;42.87;13.30;94567.13;5057304;28;19917;-73
2021/08/16 08:33:48;;;;;;;;;;;;;;;42.69;13.88;94568.31;5057585;28;19943;-77
2021/08/16 08:36:15;;;;;;;;;;;;;;;42.70;13.58;94563.56;5057673;28;19913;-75
2021/08/16 08:38:42;;;;;;;;;;;;;;;42.53;13.77;94559.97;5046700;28;20337;-72
2021/08/16 08:41:09;;;;;;;;;;;;;;;42.34;14.00;94563.03;5037168;28;19920;-76
2021/08/16 08:43:35;;;;;;;;;;;;;;;42.85;13.51;94557.88;5035580;28;19921;-75
2021/08/16 08:46:02;;;;;;;;;;;;;;;42.95;13.46;94556.47;5053567;28;19916;-75
2021/08/16 08:48:29;;;;;;;;;;;;;;;42.54;13.46;94562.22;5045916;28;19917;-76
2021/08/16 08:50:57;;;;;;;;;;;;;;;42.94;13.05;94554.94;5054802;28;20335;-69
2021/08/16 08:53:24;;;;;;;;;;;;;;;42.97;12.93;94548.50;5044846;28;20235;-76
2021/08/16 08:55:51;;;;;;;;;;;;;;;43.02;12.96;94547.75;5053756;28;19951;-77
2021/08/16 08:58:18;;;;;;;;;;;;;;;42.92;13.40;94547.19;5053864;28;20319;-76
2021/08/16 09:00:45;;;;;;;;;;;;;;;42.88;13.05;94545.94;5036920;28;19913;-75
2021/08/16 09:03:12;;;;;;;;;;;;;;;42.91;13.09;94553.94;5052723;28;19916;-76
2021/08/16 09:05:46;;;;;;;;;;;;;;;42.77;12.66;94541.88;5038815;28;19913;-70
2021/08/16 09:08:22;;;;;;;;;;;;;;;43.35;12.34;94539.66;5036412;28;19924;-74
2021/08/16 09:10:50;;;;;;;;;;;;;;;43.31;12.16;94544.63;5036839;28;19982;-76
2021/08/16 09:13:35;;;;;;;;;;;;;;;43.26;12.43;94547.34;5044958;28;19924;-76
2021/08/16 09:16:09;;;;;;;;;;;;;;;43.21;12.49;94537.84;5037287;28;19921;-76
2021/08/16 09:18:36;;;;;;;;;;;;;;;43.47;12.05;94539.69;5036552;28;19913;-77
2021/08/16 09:21:03;;;;;;;;;;;;;;;43.54;12.08;94539.19;5036485;28;19924;-72
2021/08/16 09:23:40;;;;;;;;;;;;;;;43.71;11.71;94539.97;5036505;28;19913;-76
2021/08/16 09:26:07;;;;;;;;;;;;;;;43.62;11.99;94534.69;5036493;28;19913;-77
2021/08/16 09:28:34;;;;;;;;;;;;;;;43.70;11.67;94530.22;5035453;28;19920;-77
2021/08/16 09:31:14;;;;;;;;;;;;;;;43.80;11.92;94523.25;5036471;28;19913;-77
2021/08/16 09:34:10;;;;;;;;;;;;;;;44.03;11.81;94523.25;5039380;28;19917;-78
2021/08/16 09:36:38;;;;;;;;;;;;;;;43.68;12.38;94521.72;5022596;28;19932;-77
2021/08/16 09:39:18;;;;;;;;;;;;;;;43.63;11.81;94519.69;5036004;28;19913;-77
2021/08/16 09:41:45;;;;;;;;;;;;;;;43.81;12.73;94510.97;5035981;28;19920;-77
2021/08/16 09:44:12;;;;;;;;;;;;;;;43.29;12.52;94508.63;5039651;28;19932;-74
2021/08/16 09:46:39;;;;;;;;;;;;;;;43.67;12.19;94506.44;5056244;28;20231;-77
2021/08/16 09:49:07;;;;;;;;;;;;;;;43.75;11.60;94513.00;5056092;28;20255;-76
2021/08/16 09:51:34;;;;;;;;;;;;;;;43.53;12.28;94501.94;5054281;28;19923;-77
2021/08/16 09:54:01;;;;;;;;;;;;;;;43.46;12.22;94496.88;5055794;28;19920;-77
2021/08/16 09:56:28;;;;;;;;;;;;;;;43.42;11.37;94499.13;5055759;28;19917;-77
2021/08/16 09:58:55;;;;;;;;;;;;;;;43.37;11.64;94498.63;5055870;28;20292;-72
2021/08/16 10:01:22;;;;;;;;;;;;;;;43.48;11.58;94488.91;5055989;28;19920;-76
2021/08/16 10:03:49;;;;;;;;;;;;;;;42.88;12.15;94490.97;5036007;28;19924;-77
2021/08/16 10:06:16;;;;;;;;;;;;;;;43.11;11.79;94481.53;5055651;28;19920;-76
2021/08/16 10:08:51;;;;;;;;;;;;;;;43.37;11.70;94479.38;5054788;28;20192;-75
2021/08/16 10:11:19;;;;;;;;;;;;;;;43.15;11.89;94482.06;5050727;28;19913;-76
2021/08/16 10:13:47;;;;;;;;;;;;;;;43.17;12.06;94474.06;5054256;28;19931;-77
2021/08/16 10:16:14;;;;;;;;;;;;;;;43.24;11.38;94468.09;5055481;28;19924;-73
2021/08/16 10:18:45;;;;;;;;;;;;;;;43.18;11.60;94472.81;5055635;28;20342;-77
2021/08/16 10:21:16;;;;;;;;;;;;;;;43.23;11.50;94465.84;5055102;28;19916;-77
2021/08/16 10:23:47;;;;;;;;;;;;;;;43.17;11.29;94462.31;5053751;28;20243;-77
2021/08/16 10:26:22;;;;;;;;;;;;;;;43.00;11.32;94471.28;5055393;28;19920;-76
2021/08/16 10:28:53;;;;;;;;;;;;;;;43.05;11.28;94469.78;5055283;28;19912;-77
2021/08/16 10:31:26;;;;;;;;;;;;;;;43.35;11.20;94459.88;5054701;28;19923;-78
2021/08/16 10:33:53;;;;;;;;;;;;;;;43.24;11.26;94465.34;5036447;28;19913;-77
2021/08/16 10:36:21;;;;;;;;;;;;;;;43.13;11.14;94451.53;5035001;28;19921;-77
2021/08/16 10:38:48;;;;;;;;;;;;;;;43.82;11.09;94451.19;5035570;28;19916;-78
2021/08/16 10:41:25;;;;;;;;;;;;;;;43.70;11.26;94461.41;5035313;28;19924;-76
2021/08/16 10:43:52;;;;;;;;;;;;;;;43.69;11.27;94446.16;5051950;28;19925;-76
2021/08/16 10:46:21;;;;;;;;;;;;;;;43.58;11.14;94448.91;5054433;28;19916;-77
2021/08/16 10:49:01;;;;;;;;;;;;;;;43.50;11.29;94447.91;5054946;28;19943;-77
2021/08/16 10:51:37;;;;;;;;;;;;;;;43.58;11.13;94440.63;5054876;28;19917;-73
2021/08/16 10:54:04;;;;;;;;;;;;;;;43.46;10.95;94439.13;5033411;28;19913;-77
2021/08/16 10:56:31;;;;;;;;;;;;;;;43.62;10.94;94435.63;5034458;28;19921;-77
2021/08/16 10:58:57;;;;;;;;;;;;;;;44.43;10.97;94434.56;5035215;28;19913;-77
2021/08/16 11:01:28;;;;;;;;;;;;;;;44.65;10.88;94427.50;5050406;28;20296;-77
2021/08/16 11:04:16;;;;;;;;;;;;;;;44.50;10.68;94423.03;5052228;28;19912;-77
2021/08/16 11:06:56;;;;;;;;;;;;;;;44.03;10.87;94424.88;5054802;28;19913;-77
2021/08/16 11:09:23;;;;;;;;;;;;;;;43.54;10.81;94418.13;5054786;28;19920;-76
2021/08/16 11:11:54;;;;;;;;;;;;;;;43.54;10.90;94409.88;5056335;28;19912;-74
2021/08/16 11:14:24;;;;;;;;;;;;;;;43.45;11.07;94410.09;5037820;28;19927;-77
2021/08/16 11:16:52;;;;;;;;;;;;;;;43.81;10.81;94409.13;5038789;28;20541;-72
2021/08/16 11:19:19;;;;;;;;;;;;;;;43.58;10.83;94408.38;5038594;28;19913;-78
2021/08/16 11:21:52;;;;;;;;;;;;;;;43.53;11.24;94400.88;5038079;28;19917;-77
2021/08/16 11:24:32;;;;;;;;;;;;;;;43.71;10.92;94407.88;5038566;28;19946;-77
2021/08/16 11:26:58;;;;;;;;;;;;;;;43.71;11.02;94404.38;5038578;28;19920;-77
2021/08/16 11:29:26;;;;;;;;;;;;;;;43.78;11.11;94403.88;5038445;28;19925;-77
2021/08/16 11:32:01;;;;;;;;;;;;;;;43.89;10.75;94390.09;5038143;28;19920;-75
2021/08/16 11:34:28;;;;;;;;;;;;;;;44.06;10.90;94401.09;5057835;28;19924;-77
2021/08/16 11:36:56;;;;;;;;;;;;;;;43.65;10.97;94393.34;5058405;28;19919;-65
2021/08/16 11:39:29;;;;;;;;;;;;;;;43.99;10.74;94391.34;5058357;28;19916;-62
2021/08/16 11:41:56;;;;;;;;;;;;;;;44.06;10.69;94384.56;5057350;28;19913;-66
2021/08/16 11:44:23;;;;;;;;;;;;;;;44.28;10.89;94373.53;5055540;28;19924;-64
2021/08/16 11:46:50;;;;;;;;;;;;;;;44.50;10.70;94373.44;5057988;28;19916;-78
2021/08/16 11:49:17;;;;;;;;;;;;;;;44.09;11.02;94372.56;5057387;28;20322;-76
2021/08/16 11:51:45;;;;;;;;;;;;;;;44.19;10.62;94365.53;5057208;28;19919;-76
2021/08/16 11:54:22;;;;;;;;;;;;;;;44.17;10.68;94357.00;5056449;28;19913;-75
2021/08/16 11:56:50;;;;;;;;;;;;;;;44.40;10.72;94363.94;5057708;28;19920;-75
2021/08/16 11:59:20;;;;;;;;;;;;;;;44.42;10.69;94369.69;5057785;28;19919;-78
2021/08/16 12:01:47;;;;;;;;;;;;;;;44.38;10.61;94366.47;5057514;28;19916;-76
2021/08/16 12:04:14;;;;;;;;;;;;;;;43.94;10.86;94348.78;5055951;28;19924;-76
2021/08/16 12:06:46;;;;;;;;;;;;;;;44.23;10.79;94350.22;5057991;28;19913;-77
2021/08/16 12:09:13;;;;;;;;;;;;;;;44.10;10.62;94352.03;5057197;28;19924;-77
2021/08/16 12:11:40;;;;;;;;;;;;;;;43.67;11.21;94344.06;5057763;28;19913;-78
2021/08/16 12:14:07;;;;;;;;;;;;;;;43.81;10.86;94343.06;5038402;28;19932;-77
2021/08/16 12:16:35;;;;;;;;;;;;;;;43.64;11.17;94336.81;5037303;28;19920;-77
2021/08/16 12:19:05;;;;;;;;;;;;;;;43.71;11.00;94333.56;5036440;28;19913;-66
2021/08/16 12:21:34;;;;;;;;;;;;;;;43.99;10.96;94334.28;5037254;28;19917;-73
2021/08/16 12:24:17;;;;;;;;;;;;;;;44.29;10.83;94328.19;5112668;27;19916;-78
2021/08/16 12:27:01;;;;;;;;;;;;;;;44.05;11.03;94328.75;5113302;27;19916;-77
2021/08/16 12:29:46;;;;;;;;;;;;;;;43.63;11.05;94327.06;5113316;27;19920;-78
2021/08/16 12:32:29;;;;;;;;;;;;;;;43.98;10.76;94321.78;5112865;27;20219;-78
2021/08/16 12:35:17;;;;;;;;;;;;;;;43.90;10.75;94317.28;5092511;28;19932;-78
2021/08/16 12:38:00;;;;;;;;;;;;;;;43.67;10.78;94316.53;5113205;27;19924;-77
2021/08/16 12:40:41;;;;;;;;;;;;;;;43.88;10.99;94309.53;5113306;27;19919;-78
2021/08/16 12:43:22;;;;;;;;;;;;;;;43.72;11.02;94307.53;5121746;27;19923;-77
2021/08/16 12:46:04;;;;;;;;;;;;;;;43.66;10.82;94309.53;5113242;27;19973;-77
2021/08/16 12:48:45;;;;;;;;;;;;;;;43.42;11.00;94312.06;5113265;27;19916;-77
2021/08/16 12:51:27;;;;;;;;;;;;;;;43.34;11.28;94298.84;5113236;27;19916;-77
2021/08/16 12:54:09;;;;;;;;;;;;;;;43.49;11.10;94295.09;5133134;27;20014;-77